createdAt,value
2023-04-06T00:01:09.920Z,5.25
2023-04-06T00:03:37.370Z,6.18
2023-04-06T00:06:05.042Z,6.03
2023-04-06T00:08:32.216Z,5.88
2023-04-06T00:10:59.434Z,3.35
2023-04-06T00:13:26.887Z,5.10
2023-04-06T00:15:54.071Z,6.20
2023-04-06T00:18:21.477Z,7.80
2023-04-06T00:20:48.742Z,3.75
2023-04-06T00:23:16.361Z,3.60
2023-04-06T00:25:43.523Z,7.50
2023-04-06T00:28:10.762Z,4.38
2023-04-06T00:30:37.995Z,4.22
2023-04-06T00:33:05.528Z,3.53
2023-04-06T00:35:32.746Z,3.55
2023-04-06T00:37:59.927Z,3.13
2023-04-06T00:40:29.339Z,8.20
2023-04-06T00:42:56.955Z,16.58
2023-04-06T00:45:24.160Z,4.22
2023-04-06T00:47:51.396Z,4.90
2023-04-06T00:50:18.986Z,5.35
2023-04-06T00:52:46.229Z,6.28
2023-04-06T00:55:13.426Z,3.25
2023-04-06T00:57:40.637Z,3.63
2023-04-06T01:00:08.408Z,4.05
2023-04-06T01:02:35.778Z,2.60
2023-04-06T01:05:03.766Z,3.05
2023-04-06T01:07:31.183Z,3.75
2023-04-06T01:09:58.604Z,3.28
2023-04-06T01:12:26.477Z,6.00
2023-04-06T01:14:53.839Z,3.28
2023-04-06T01:17:21.009Z,3.33
2023-04-06T01:19:50.281Z,3.50
2023-04-06T01:22:18.043Z,3.05
2023-04-06T01:24:45.739Z,4.60
2023-04-06T01:27:13.371Z,3.15
2023-04-06T01:29:44.025Z,2.58
2023-04-06T01:32:11.267Z,1.90
2023-04-06T01:34:38.624Z,2.58
2023-04-06T01:37:05.784Z,5.07
2023-04-06T01:39:32.972Z,3.08
2023-04-06T01:42:00.172Z,3.78
2023-04-06T01:44:27.923Z,2.03
2023-04-06T01:46:55.252Z,2.00
2023-04-06T01:49:22.438Z,2.85
2023-04-06T01:51:49.593Z,3.75
2023-04-06T01:54:16.812Z,3.55
2023-04-06T01:56:44.152Z,2.85
2023-04-06T01:59:11.609Z,2.67
2023-04-06T02:01:39.036Z,2.80
2023-04-06T02:04:06.331Z,3.63
2023-04-06T02:06:33.484Z,2.65
2023-04-06T02:09:00.764Z,3.80
2023-04-06T02:11:27.928Z,2.95
2023-04-06T02:13:56.624Z,2.80
2023-04-06T02:16:23.947Z,2.35
2023-04-06T02:18:51.886Z,2.80
2023-04-06T02:21:21.139Z,3.78
2023-04-06T02:23:48.733Z,2.45
2023-04-06T02:26:16.485Z,3.55
2023-04-06T02:28:43.706Z,2.83
2023-04-06T02:31:12.001Z,2.20
2023-04-06T02:33:39.230Z,3.30
2023-04-06T02:36:06.505Z,2.22
2023-04-06T02:38:33.749Z,5.15
2023-04-06T02:41:01.160Z,2.45
2023-04-06T02:43:28.371Z,2.10
2023-04-06T02:45:55.874Z,4.25
2023-04-06T02:48:23.087Z,2.15
2023-04-06T02:50:50.295Z,2.33
2023-04-06T02:53:17.478Z,2.05
2023-04-06T02:55:44.675Z,2.10
2023-04-06T02:58:11.891Z,1.75
2023-04-06T03:00:39.385Z,2.67
2023-04-06T03:03:06.778Z,2.13
2023-04-06T03:05:34.131Z,2.67
2023-04-06T03:08:01.312Z,2.22
2023-04-06T03:10:28.464Z,2.72
2023-04-06T03:12:55.683Z,1.88
2023-04-06T03:15:22.914Z,2.35
2023-04-06T03:17:50.250Z,2.00
2023-04-06T03:20:17.456Z,2.85
2023-04-06T03:22:44.648Z,1.40
2023-04-06T03:25:11.824Z,2.33
2023-04-06T03:27:39.015Z,3.30
2023-04-06T03:30:07.247Z,1.70
2023-04-06T03:32:34.473Z,2.30
2023-04-06T03:35:01.769Z,4.00
2023-04-06T03:37:28.957Z,1.67
2023-04-06T03:39:56.159Z,1.95
2023-04-06T03:42:23.419Z,2.38
2023-04-06T03:44:50.597Z,4.30
2023-04-06T03:47:17.790Z,3.55
2023-04-06T03:49:47.962Z,2.67
2023-04-06T03:52:15.212Z,1.80
2023-04-06T03:54:42.377Z,2.38
2023-04-06T03:57:09.549Z,1.40
2023-04-06T03:59:36.834Z,2.10
2023-04-06T04:02:06.816Z,2.92
2023-04-06T04:04:34.075Z,2.53
2023-04-06T04:07:01.285Z,1.83
2023-04-06T04:09:29.778Z,2.08
2023-04-06T04:11:57.316Z,2.30
2023-04-06T04:14:27.465Z,2.95
2023-04-06T04:16:54.738Z,2.35
2023-04-06T04:19:22.027Z,3.00
2023-04-06T04:21:49.233Z,2.30
2023-04-06T04:24:18.963Z,2.20
2023-04-06T04:26:46.270Z,2.00
2023-04-06T04:29:13.597Z,3.72
2023-04-06T04:31:40.906Z,3.38
2023-04-06T04:34:08.104Z,1.42
2023-04-06T04:36:35.321Z,2.17
2023-04-06T04:39:02.541Z,1.75
2023-04-06T04:41:29.862Z,2.13
2023-04-06T04:43:57.120Z,1.70
2023-04-06T04:46:24.325Z,1.90
2023-04-06T04:48:51.506Z,2.40
2023-04-06T04:51:18.728Z,1.77
2023-04-06T04:53:46.142Z,2.92
2023-04-06T04:56:13.397Z,2.03
2023-04-06T04:58:40.649Z,2.28
2023-04-06T05:01:07.923Z,1.80
2023-04-06T05:03:35.397Z,3.42
2023-04-06T05:06:02.812Z,3.25
2023-04-06T05:08:30.134Z,3.42
2023-04-06T05:10:57.369Z,3.53
2023-04-06T05:13:24.592Z,4.00
2023-04-06T05:15:51.877Z,2.70
2023-04-06T05:18:19.153Z,3.03
2023-04-06T05:20:46.656Z,2.30
2023-04-06T05:23:13.981Z,2.30
2023-04-06T05:25:41.762Z,4.70
2023-04-06T05:28:08.945Z,3.22
2023-04-06T05:30:36.776Z,2.70
2023-04-06T05:33:04.267Z,2.13
2023-04-06T05:35:31.706Z,2.15
2023-04-06T05:37:58.946Z,2.67
2023-04-06T05:40:26.181Z,2.67
2023-04-06T05:42:53.380Z,3.95
2023-04-06T05:45:21.631Z,2.33
2023-04-06T05:47:48.847Z,1.53
2023-04-06T05:50:16.870Z,1.73
2023-04-06T05:52:46.199Z,3.90
2023-04-06T05:55:13.707Z,4.35
2023-04-06T05:57:40.914Z,2.63
2023-04-06T06:00:10.709Z,2.42
2023-04-06T06:02:38.055Z,3.83
2023-04-06T06:05:05.557Z,4.20
2023-04-06T06:07:33.060Z,2.20
2023-04-06T06:10:00.690Z,2.15
2023-04-06T06:12:27.955Z,2.08
2023-04-06T06:14:56.442Z,2.40
2023-04-06T06:17:23.755Z,3.22
2023-04-06T06:19:51.133Z,2.38
2023-04-06T06:22:18.331Z,3.65
2023-04-06T06:24:45.923Z,2.25
2023-04-06T06:27:13.177Z,3.38
2023-04-06T06:29:40.425Z,2.47
2023-04-06T06:32:09.876Z,2.25
2023-04-06T06:34:37.346Z,2.45
2023-04-06T06:37:04.579Z,3.70
2023-04-06T06:39:31.754Z,4.13
2023-04-06T06:42:01.528Z,2.95
2023-04-06T06:44:29.160Z,3.30
2023-04-06T06:46:56.640Z,2.72
2023-04-06T06:49:23.912Z,10.70
2023-04-06T06:51:51.660Z,12.35
2023-04-06T06:54:19.102Z,7.82
2023-04-06T06:56:46.353Z,11.90
2023-04-06T06:59:13.795Z,3.70
2023-04-06T07:01:43.996Z,19.45
2023-04-06T07:04:11.399Z,4.10
2023-04-06T07:06:38.947Z,3.30
2023-04-06T07:09:06.292Z,5.80
2023-04-06T07:11:33.919Z,4.47
2023-04-06T07:14:01.204Z,4.35
2023-04-06T07:16:29.040Z,9.55
2023-04-06T07:18:56.704Z,14.38
2023-04-06T07:21:23.901Z,2.20
2023-04-06T07:23:51.774Z,6.15
2023-04-06T07:26:19.257Z,5.95
2023-04-06T07:28:46.438Z,7.95
2023-04-06T07:31:13.702Z,8.10
2023-04-06T07:33:41.020Z,16.63
2023-04-06T07:36:08.464Z,12.07
2023-04-06T07:38:35.758Z,12.35
2023-04-06T07:41:04.962Z,15.05
2023-04-06T07:43:32.526Z,8.57
2023-04-06T07:46:01.701Z,9.60
2023-04-06T07:48:28.951Z,6.28
2023-04-06T07:51:03.217Z,5.10
2023-04-06T07:53:31.414Z,9.05
2023-04-06T07:56:00.106Z,7.30
2023-04-06T07:58:27.445Z,4.90
2023-04-06T08:00:56.345Z,6.50
2023-04-06T08:03:26.714Z,9.18
2023-04-06T08:05:57.291Z,9.45
2023-04-06T08:08:24.614Z,5.50
2023-04-06T08:10:52.092Z,4.82
2023-04-06T08:13:19.279Z,9.55
2023-04-06T08:15:46.606Z,4.20
2023-04-06T08:18:13.821Z,6.55
2023-04-06T08:20:41.353Z,8.60
2023-04-06T08:23:10.282Z,6.50
2023-04-06T08:28:05.735Z,7.47
2023-04-06T08:30:33.269Z,6.27
2023-04-06T08:33:00.522Z,4.03
2023-04-06T08:35:28.312Z,6.47
2023-04-06T08:37:57.061Z,7.30
2023-04-06T08:40:24.578Z,4.25
2023-04-06T08:42:55.703Z,4.90
2023-04-06T08:45:23.299Z,4.35
2023-04-06T08:47:53.175Z,4.82
2023-04-06T08:50:20.960Z,6.20
2023-04-06T08:52:51.363Z,3.53
2023-04-06T08:55:18.652Z,4.05
2023-04-06T08:57:47.426Z,4.20
2023-04-06T09:00:15.666Z,1.80
2023-04-06T09:02:45.031Z,4.63
2023-04-06T09:05:12.538Z,3.03
2023-04-06T09:07:39.857Z,2.78
2023-04-06T09:10:07.753Z,5.32
2023-04-06T09:12:35.753Z,3.90
2023-04-06T09:15:03.549Z,2.63
2023-04-06T09:17:33.771Z,2.95
2023-04-06T09:20:03.080Z,3.25
2023-04-06T09:22:40.234Z,2.65
2023-04-06T09:25:09.520Z,3.97
2023-04-06T09:27:38.236Z,1.80
2023-04-06T09:30:16.834Z,2.97
2023-04-06T09:32:49.321Z,2.38
2023-04-06T09:35:16.673Z,5.82
2023-04-06T09:37:44.558Z,3.45
2023-04-06T09:40:12.348Z,1.73
2023-04-06T09:42:41.478Z,3.65
2023-04-06T09:45:09.190Z,1.95
2023-04-06T09:47:41.210Z,4.18
2023-04-06T09:50:09.716Z,2.53
2023-04-06T09:52:50.500Z,4.93
2023-04-06T09:55:38.162Z,1.45
2023-04-06T09:58:10.803Z,1.30
2023-04-06T10:00:45.832Z,2.90
2023-04-06T10:03:27.721Z,1.20
2023-04-06T10:06:01.149Z,1.70
2023-04-06T10:08:32.508Z,1.42
2023-04-06T10:11:01.737Z,1.10
2023-04-06T10:13:29.143Z,1.60
2023-04-06T10:15:57.990Z,1.52
2023-04-06T10:18:25.310Z,0.73
2023-04-06T10:20:56.254Z,1.50
2023-04-06T10:23:37.747Z,1.60
2023-04-06T10:26:05.514Z,2.10
2023-04-06T10:28:37.366Z,2.67
2023-04-06T10:31:07.949Z,1.50
2023-04-06T10:33:35.636Z,1.73
2023-04-06T10:36:16.562Z,1.00
2023-04-06T10:38:44.047Z,1.95
2023-04-06T10:41:13.033Z,1.15
2023-04-06T10:46:09.930Z,1.75
2023-04-06T10:48:44.865Z,1.38
2023-04-06T10:51:14.215Z,2.53
2023-04-06T10:53:49.922Z,0.70
2023-04-06T10:56:18.870Z,1.35
2023-04-06T10:58:50.613Z,1.52
2023-04-06T11:01:19.089Z,4.40
2023-04-06T11:03:50.880Z,2.72
2023-04-06T11:06:27.732Z,1.98
2023-04-06T11:08:55.784Z,6.82
2023-04-06T11:11:24.560Z,9.45
2023-04-06T11:13:56.728Z,0.70
2023-04-06T11:16:26.203Z,2.42
2023-04-06T11:19:02.947Z,5.25
2023-04-06T11:21:46.529Z,2.45
2023-04-06T11:24:13.743Z,1.55
2023-04-06T11:26:43.030Z,1.88
2023-04-06T11:29:10.420Z,3.00
2023-04-06T11:31:55.064Z,1.55
2023-04-06T11:34:23.898Z,1.30
2023-04-06T11:36:57.674Z,0.77
2023-04-06T11:39:26.598Z,1.92
2023-04-06T11:42:05.554Z,1.27
2023-04-06T11:44:36.300Z,3.55
2023-04-06T11:47:08.160Z,2.95
2023-04-06T11:49:37.926Z,2.00
2023-04-06T11:52:25.264Z,1.63
2023-04-06T11:54:53.810Z,2.03
2023-04-06T11:57:25.462Z,2.38
2023-04-06T11:59:53.015Z,1.40
2023-04-06T12:02:20.440Z,1.35
2023-04-06T12:04:47.807Z,2.33
2023-04-06T12:07:15.046Z,0.70
2023-04-06T12:09:43.742Z,1.83
2023-04-06T12:12:11.045Z,1.85
2023-04-06T12:14:38.359Z,1.90
2023-04-06T12:17:05.852Z,1.50
2023-04-06T12:19:33.320Z,2.58
2023-04-06T12:22:00.795Z,1.75
2023-04-06T12:24:29.693Z,3.33
2023-04-06T12:27:08.653Z,0.60
2023-04-06T12:29:39.737Z,2.03
2023-04-06T12:32:07.233Z,1.38
2023-04-06T12:34:34.505Z,0.80
2023-04-06T12:37:01.844Z,1.35
2023-04-06T12:39:29.538Z,0.88
2023-04-06T12:41:57.353Z,1.17
2023-04-06T12:44:25.580Z,2.08
2023-04-06T12:46:54.273Z,0.98
2023-04-06T12:49:22.988Z,1.80
2023-04-06T12:51:51.257Z,0.82
2023-04-06T12:54:18.572Z,1.17
2023-04-06T12:56:45.974Z,1.13
2023-04-06T12:59:13.237Z,1.75
2023-04-06T13:01:40.528Z,1.42
2023-04-06T13:04:07.688Z,1.10
2023-04-06T13:06:34.970Z,1.13
2023-04-06T13:09:02.382Z,0.88
2023-04-06T13:11:30.898Z,3.22
2023-04-06T13:13:58.127Z,1.25
2023-04-06T13:16:25.339Z,0.85
2023-04-06T13:18:52.601Z,1.48
2023-04-06T13:21:21.699Z,0.68
2023-04-06T13:23:48.990Z,1.02
2023-04-06T13:26:17.619Z,1.08
2023-04-06T13:28:45.149Z,1.05
2023-04-06T13:31:12.553Z,1.90
2023-04-06T13:33:41.722Z,1.00
2023-04-06T13:36:09.476Z,1.45
2023-04-06T13:38:43.010Z,1.08
2023-04-06T13:41:10.656Z,1.15
2023-04-06T13:43:37.878Z,0.52
2023-04-06T13:46:05.538Z,3.15
2023-04-06T13:48:32.847Z,1.80
2023-04-06T13:51:12.567Z,1.17
2023-04-06T13:53:41.601Z,2.05
2023-04-06T13:56:09.439Z,1.10
2023-04-06T13:58:37.218Z,2.08
2023-04-06T14:01:08.918Z,3.28
2023-04-06T14:03:36.854Z,1.17
2023-04-06T14:06:31.119Z,6.65
2023-04-06T14:08:58.950Z,3.20
2023-04-06T14:11:26.117Z,7.00
2023-04-06T14:13:53.566Z,12.43
2023-04-06T14:16:24.196Z,15.77
2023-04-06T14:18:52.175Z,17.20
2023-04-06T14:21:19.857Z,21.05
2023-04-06T14:23:47.587Z,22.77
2023-04-06T14:26:14.957Z,25.65
2023-04-06T14:28:42.345Z,25.98
2023-04-06T14:31:14.205Z,24.70
2023-04-06T14:33:41.873Z,29.75
2023-04-06T14:36:09.605Z,27.60
2023-04-06T14:38:37.319Z,35.80
2023-04-06T14:41:04.660Z,28.90
2023-04-06T14:43:32.175Z,28.55
2023-04-06T14:46:03.263Z,34.75
2023-04-06T14:48:30.673Z,31.08
2023-04-06T14:50:58.324Z,29.27
2023-04-06T14:53:25.968Z,28.23
2023-04-06T14:55:53.700Z,27.83
2023-04-06T14:58:21.532Z,27.40
2023-04-06T15:00:49.330Z,25.77
2023-04-06T15:03:17.168Z,25.17
2023-04-06T15:05:46.841Z,25.80
2023-04-06T15:08:16.177Z,25.13
2023-04-06T15:10:43.931Z,23.88
2023-04-06T15:13:11.176Z,24.25
2023-04-06T15:15:38.868Z,24.00
2023-04-06T15:18:06.501Z,22.58
2023-04-06T15:20:35.174Z,21.70
2023-04-06T15:23:05.580Z,23.13
2023-04-06T15:25:32.897Z,19.77
2023-04-06T15:28:01.281Z,21.48
2023-04-06T15:30:29.032Z,23.67
2023-04-06T15:33:06.743Z,23.65
2023-04-06T15:35:42.753Z,21.38
2023-04-06T15:38:10.738Z,23.08
2023-04-06T15:40:48.538Z,21.05
2023-04-06T15:43:19.235Z,23.42
2023-04-06T15:45:47.151Z,22.15
2023-04-06T15:48:14.333Z,19.90
2023-04-06T15:50:41.757Z,20.48
2023-04-06T15:53:09.015Z,19.65
2023-04-06T15:55:36.257Z,20.92
2023-04-06T15:58:03.436Z,18.27
2023-04-06T16:00:31.171Z,18.17
2023-04-06T16:02:58.469Z,18.75
2023-04-06T16:05:28.323Z,19.10
2023-04-06T16:07:56.806Z,21.45
2023-04-06T16:10:24.097Z,17.77
2023-04-06T16:12:52.294Z,17.45
2023-04-06T16:15:19.569Z,17.67
2023-04-06T16:17:46.916Z,17.75
2023-04-06T16:20:15.759Z,17.42
2023-04-06T16:22:43.317Z,17.75
2023-04-06T16:25:11.823Z,16.20
2023-04-06T16:27:39.006Z,15.18
2023-04-06T16:30:07.470Z,17.45
2023-04-06T16:32:35.002Z,19.13
2023-04-06T16:35:03.711Z,15.73
2023-04-06T16:37:31.436Z,16.33
2023-04-06T16:39:59.698Z,14.18
2023-04-06T16:42:27.676Z,15.40
2023-04-06T16:44:54.961Z,15.07
2023-04-06T16:47:23.951Z,14.05
2023-04-06T16:49:55.032Z,13.70
2023-04-06T16:52:33.935Z,13.13
2023-04-06T16:55:01.615Z,14.57
2023-04-06T16:57:31.852Z,13.27
2023-04-06T16:59:59.156Z,12.90
2023-04-06T17:02:26.613Z,16.75
2023-04-06T17:04:54.015Z,13.43
2023-04-06T17:07:25.515Z,13.13
2023-04-06T17:09:52.823Z,12.88
2023-04-06T17:12:20.012Z,11.60
2023-04-06T17:14:47.448Z,13.55
2023-04-06T17:17:14.902Z,13.70
2023-04-06T17:19:42.138Z,11.48
2023-04-06T17:22:09.358Z,11.85
2023-04-06T17:24:36.558Z,12.27
2023-04-06T17:27:03.806Z,12.02
2023-04-06T17:29:31.029Z,12.40
2023-04-06T17:31:58.198Z,11.35
2023-04-06T17:34:25.762Z,12.25
2023-04-06T17:36:52.975Z,11.63
2023-04-06T17:39:20.512Z,16.58
2023-04-06T17:41:47.808Z,12.88
2023-04-06T17:44:15.007Z,11.73
2023-04-06T17:46:42.479Z,10.85
2023-04-06T17:49:09.686Z,10.90
2023-04-06T17:51:39.735Z,12.90
2023-04-06T17:54:07.225Z,13.63
2023-04-06T17:56:34.441Z,9.20
2023-04-06T17:59:02.681Z,9.82
2023-04-06T18:01:31.584Z,9.23
2023-04-06T18:06:26.296Z,10.60
2023-04-06T18:08:53.934Z,8.90
2023-04-06T18:11:25.820Z,8.48
2023-04-06T18:13:53.533Z,9.95
2023-04-06T18:16:21.272Z,11.02
2023-04-06T18:18:51.692Z,12.32
2023-04-06T18:21:18.980Z,8.68
2023-04-06T18:23:46.687Z,9.52
2023-04-06T18:26:18.392Z,7.90
2023-04-06T18:28:46.566Z,12.75
2023-04-06T18:31:14.245Z,10.90
2023-04-06T18:33:41.474Z,9.68
2023-04-06T18:36:09.826Z,9.82
2023-04-06T18:38:39.264Z,9.15
2023-04-06T18:41:06.945Z,8.80
2023-04-06T18:43:34.747Z,9.93
2023-04-06T18:46:01.924Z,10.05
2023-04-06T18:48:29.180Z,7.95
2023-04-06T18:51:01.679Z,12.75
2023-04-06T18:53:29.007Z,10.23
2023-04-06T18:55:59.537Z,10.13
2023-04-06T18:58:27.199Z,10.75
2023-04-06T19:00:54.794Z,9.57
2023-04-06T19:03:22.436Z,14.80
2023-04-06T19:05:50.139Z,14.90
2023-04-06T19:08:17.648Z,10.13
2023-04-06T19:10:45.290Z,14.40
2023-04-06T19:13:12.604Z,16.58
2023-04-06T19:15:42.753Z,14.95
2023-04-06T19:18:10.473Z,13.02
2023-04-06T19:20:37.661Z,12.73
2023-04-06T19:23:04.893Z,16.08
2023-04-06T19:25:32.107Z,13.73
2023-04-06T19:27:59.354Z,14.38
2023-04-06T19:30:27.008Z,21.15
2023-04-06T19:32:55.010Z,19.40
2023-04-06T19:35:22.586Z,15.43
2023-04-06T19:37:49.987Z,17.58
2023-04-06T19:40:17.511Z,20.77
2023-04-06T19:42:44.990Z,26.20
2023-04-06T19:45:12.429Z,34.03
2023-04-06T19:47:40.071Z,29.45
2023-04-06T19:50:10.280Z,28.95
2023-04-06T19:52:38.712Z,22.42
2023-04-06T19:55:06.376Z,24.42
2023-04-06T19:57:33.680Z,29.90
2023-04-06T20:00:01.277Z,27.38
2023-04-06T20:02:28.769Z,30.63
2023-04-06T20:04:56.207Z,19.40
2023-04-06T20:07:23.408Z,17.35
2023-04-06T20:09:50.778Z,17.48
2023-04-06T20:12:17.970Z,22.42
2023-04-06T20:14:45.328Z,30.25
2023-04-06T20:17:12.496Z,18.77
2023-04-06T20:19:39.897Z,20.35
2023-04-06T20:22:07.389Z,17.25
2023-04-06T20:24:34.544Z,17.55
2023-04-06T20:27:01.804Z,20.17
2023-04-06T20:29:29.047Z,17.38
2023-04-06T20:31:56.460Z,18.02
2023-04-06T20:34:25.990Z,15.90
2023-04-06T20:36:53.780Z,11.00
2023-04-06T20:39:21.124Z,14.85
2023-04-06T20:41:48.568Z,18.33
2023-04-06T20:44:16.517Z,16.10
2023-04-06T20:46:45.698Z,14.40
2023-04-06T20:49:13.525Z,12.13
2023-04-06T20:51:44.081Z,13.68
2023-04-06T20:54:11.286Z,14.25
2023-04-06T20:56:38.489Z,11.60
2023-04-06T20:59:05.912Z,13.05
2023-04-06T21:01:33.365Z,11.80
2023-04-06T21:04:02.573Z,15.00
2023-04-06T21:06:32.253Z,13.20
2023-04-06T21:09:00.421Z,10.15
2023-04-06T21:11:27.607Z,14.10
2023-04-06T21:13:54.811Z,9.18
2023-04-06T21:16:22.160Z,10.90
2023-04-06T21:18:49.410Z,13.50
2023-04-06T21:21:16.657Z,11.93
2023-04-06T21:23:43.890Z,15.55
2023-04-06T21:26:13.038Z,14.68
2023-04-06T21:28:40.238Z,20.88
2023-04-06T21:31:10.782Z,14.18
2023-04-06T21:33:38.063Z,12.60
2023-04-06T21:36:06.565Z,12.77
2023-04-06T21:38:35.185Z,16.85
2023-04-06T21:41:02.619Z,10.27
2023-04-06T21:43:30.004Z,12.73
2023-04-06T21:45:59.957Z,8.40
2023-04-06T21:48:27.173Z,9.40
2023-04-06T21:50:54.842Z,10.70
2023-04-06T21:53:22.340Z,12.43
2023-04-06T21:55:49.822Z,10.55
2023-04-06T21:58:17.359Z,12.85
2023-04-06T22:00:44.677Z,9.43
2023-04-06T22:03:12.118Z,8.48
2023-04-06T22:05:39.607Z,11.63
2023-04-06T22:10:34.555Z,12.38
2023-04-06T22:13:01.883Z,9.50
2023-04-06T22:15:29.058Z,9.25
2023-04-06T22:17:56.426Z,7.45
2023-04-06T22:20:23.792Z,7.47
2023-04-06T22:22:51.041Z,8.93
2023-04-06T22:25:18.252Z,8.77
2023-04-06T22:27:45.637Z,10.55
2023-04-06T22:30:13.087Z,8.85
2023-04-06T22:32:40.359Z,9.38
2023-04-06T22:35:08.138Z,9.80
2023-04-06T22:37:35.365Z,11.13
2023-04-06T22:40:02.631Z,12.63
2023-04-06T22:42:29.791Z,14.93
2023-04-06T22:44:56.995Z,14.95
2023-04-06T22:47:24.273Z,12.98
2023-04-06T22:49:51.465Z,10.82
2023-04-06T22:52:18.751Z,12.95
2023-04-06T22:54:46.163Z,16.05
2023-04-06T22:57:13.402Z,14.13
2023-04-06T22:59:40.570Z,14.93
2023-04-06T23:02:07.996Z,15.18
2023-04-06T23:04:35.772Z,11.30
2023-04-06T23:07:03.526Z,9.82
2023-04-06T23:09:31.058Z,12.32
2023-04-06T23:11:58.308Z,9.93
2023-04-06T23:14:25.558Z,9.32
2023-04-06T23:16:52.783Z,8.95
2023-04-06T23:19:20.049Z,8.80
2023-04-06T23:21:47.216Z,9.98
2023-04-06T23:24:14.673Z,13.07
2023-04-06T23:26:41.849Z,13.85
2023-04-06T23:29:09.002Z,9.63
2023-04-06T23:31:36.430Z,14.05
2023-04-06T23:34:03.827Z,8.60
2023-04-06T23:36:31.783Z,9.02
2023-04-06T23:38:59.030Z,7.60
2023-04-06T23:41:26.479Z,8.48
2023-04-06T23:43:54.005Z,8.63
2023-04-06T23:46:21.534Z,6.10
2023-04-06T23:48:48.808Z,10.95
2023-04-06T23:51:16.127Z,9.27
2023-04-06T23:53:44.006Z,8.27
2023-04-06T23:56:11.694Z,8.57
2023-04-06T23:58:39.141Z,8.05
